createdAt,value
2023-05-24T00:00:22.271Z,11.00
2023-05-24T00:02:51.563Z,11.10
2023-05-24T00:05:19.773Z,11.00
2023-05-24T00:07:47.558Z,11.00
2023-05-24T00:10:15.564Z,11.20
2023-05-24T00:12:43.336Z,11.30
2023-05-24T00:15:11.602Z,10.90
2023-05-24T00:17:41.290Z,10.70
2023-05-24T00:20:13.541Z,10.60
2023-05-24T00:22:41.775Z,10.80
2023-05-24T00:25:10.194Z,11.10
2023-05-24T00:27:38.048Z,11.40
2023-05-24T00:30:07.336Z,11.30
2023-05-24T00:32:35.153Z,11.10
2023-05-24T00:35:03.222Z,11.20
2023-05-24T00:37:32.378Z,11.10
2023-05-24T00:40:00.255Z,11.10
2023-05-24T00:42:28.095Z,11.30
2023-05-24T00:44:55.949Z,11.30
2023-05-24T00:47:24.091Z,11.30
2023-05-24T00:49:52.175Z,11.50
2023-05-24T00:52:20.165Z,11.30
2023-05-24T00:54:49.917Z,11.00
2023-05-24T00:57:18.927Z,11.20
2023-05-24T00:59:46.970Z,11.40
2023-05-24T01:02:14.833Z,11.30
2023-05-24T01:04:42.628Z,11.20
2023-05-24T01:07:19.000Z,11.00
2023-05-24T01:10:04.654Z,10.90
2023-05-24T01:12:42.600Z,10.90
2023-05-24T01:15:16.652Z,10.50
2023-05-24T01:17:52.755Z,10.50
2023-05-24T01:20:22.544Z,10.60
2023-05-24T01:23:19.088Z,10.80
2023-05-24T01:25:55.149Z,10.60
2023-05-24T01:28:25.791Z,10.60
2023-05-24T01:30:53.892Z,10.80
2023-05-24T01:33:22.526Z,10.80
2023-05-24T01:35:50.527Z,10.70
2023-05-24T01:38:18.427Z,10.80
2023-05-24T01:40:51.341Z,10.80
2023-05-24T01:43:27.723Z,10.40
2023-05-24T01:46:04.207Z,10.40
2023-05-24T01:48:39.064Z,10.50
2023-05-24T01:51:11.511Z,10.60
2023-05-24T01:53:44.129Z,10.30
2023-05-24T01:56:13.026Z,10.40
2023-05-24T01:58:43.957Z,10.40
2023-05-24T02:01:13.147Z,10.60
2023-05-24T02:03:41.596Z,10.60
2023-05-24T02:06:10.670Z,10.40
2023-05-24T02:08:38.524Z,10.50
2023-05-24T02:11:06.486Z,10.40
2023-05-24T02:13:34.287Z,10.60
2023-05-24T02:16:05.074Z,10.60
2023-05-24T02:18:34.717Z,10.60
2023-05-24T02:21:03.111Z,10.50
2023-05-24T02:23:31.077Z,10.60
2023-05-24T02:25:58.883Z,10.50
2023-05-24T02:28:26.654Z,10.70
2023-05-24T02:30:54.457Z,10.70
2023-05-24T02:33:25.516Z,10.70
2023-05-24T02:35:53.334Z,10.60
2023-05-24T02:38:21.119Z,10.60
2023-05-24T02:40:48.908Z,10.70
2023-05-24T02:43:16.766Z,10.90
2023-05-24T02:45:44.526Z,11.10
2023-05-24T02:48:12.281Z,11.10
2023-05-24T02:50:41.644Z,11.00
2023-05-24T02:53:09.735Z,10.80
2023-05-24T02:55:37.487Z,10.80
2023-05-24T02:58:05.334Z,10.90
2023-05-24T03:00:33.067Z,10.90
2023-05-24T03:03:03.244Z,11.00
2023-05-24T03:05:31.213Z,10.90
2023-05-24T03:08:00.314Z,10.80
2023-05-24T03:10:28.109Z,10.70
2023-05-24T03:12:55.972Z,11.00
2023-05-24T03:15:23.977Z,10.90
2023-05-24T03:17:51.826Z,11.00
2023-05-24T03:20:21.095Z,11.10
2023-05-24T03:22:48.959Z,11.30
2023-05-24T03:25:18.680Z,11.40
2023-05-24T03:27:46.511Z,11.50
2023-05-24T03:30:14.759Z,11.10
2023-05-24T03:32:42.632Z,10.90
2023-05-24T03:35:12.014Z,11.00
2023-05-24T03:37:40.131Z,11.00
2023-05-24T03:40:09.590Z,10.70
2023-05-24T03:42:38.891Z,10.80
2023-05-24T03:45:07.887Z,10.60
2023-05-24T03:47:35.698Z,10.40
2023-05-24T03:50:03.599Z,10.30
2023-05-24T03:52:31.416Z,10.20
2023-05-24T03:54:59.218Z,10.20
2023-05-24T03:57:26.952Z,10.50
2023-05-24T03:59:56.042Z,10.30
2023-05-24T04:02:23.875Z,10.40
2023-05-24T04:04:51.930Z,10.70
2023-05-24T04:07:20.012Z,10.80
2023-05-24T04:09:47.791Z,10.90
2023-05-24T04:12:15.603Z,11.00
2023-05-24T04:14:43.361Z,10.90
2023-05-24T04:17:12.588Z,11.00
2023-05-24T04:19:40.567Z,11.10
2023-05-24T04:22:08.338Z,11.10
2023-05-24T04:24:36.251Z,10.90
2023-05-24T04:27:04.214Z,10.50
2023-05-24T04:29:33.209Z,10.40
2023-05-24T04:32:01.484Z,10.30
2023-05-24T04:34:33.796Z,10.40
2023-05-24T04:37:02.088Z,10.30
2023-05-24T04:39:30.949Z,10.30
2023-05-24T04:42:00.534Z,10.60
2023-05-24T04:44:28.290Z,10.70
2023-05-24T04:46:56.094Z,10.70
2023-05-24T04:49:24.114Z,10.70
2023-05-24T04:51:55.124Z,10.70
2023-05-24T04:54:23.099Z,10.80
2023-05-24T04:56:50.893Z,11.00
2023-05-24T04:59:18.821Z,11.00
2023-05-24T05:01:46.676Z,10.80
2023-05-24T05:04:14.586Z,10.90
2023-05-24T05:06:44.542Z,11.20
2023-05-24T05:09:14.788Z,11.30
2023-05-24T05:11:43.215Z,11.40
2023-05-24T05:14:11.584Z,11.40
2023-05-24T05:16:41.154Z,11.60
2023-05-24T05:19:08.981Z,11.40
2023-05-24T05:21:39.538Z,11.40
2023-05-24T05:24:07.491Z,11.60
2023-05-24T05:26:36.745Z,11.80
2023-05-24T05:29:04.571Z,11.80
2023-05-24T05:31:32.492Z,11.70
2023-05-24T05:34:00.309Z,11.70
2023-05-24T05:36:28.119Z,11.70
2023-05-24T05:38:55.904Z,11.90
2023-05-24T05:41:23.709Z,11.90
2023-05-24T05:43:52.846Z,11.70
2023-05-24T05:46:22.106Z,11.90
2023-05-24T05:48:49.922Z,11.90
2023-05-24T05:51:17.673Z,11.70
2023-05-24T05:53:45.449Z,11.70
2023-05-24T05:56:13.283Z,11.80
2023-05-24T05:58:41.039Z,12.00
2023-05-24T06:01:10.151Z,12.20
2023-05-24T06:03:38.093Z,12.30
2023-05-24T06:06:06.244Z,12.10
2023-05-24T06:08:35.193Z,11.90
2023-05-24T06:11:03.101Z,12.20
2023-05-24T06:13:31.337Z,12.10
2023-05-24T06:16:01.181Z,12.10
2023-05-24T06:18:30.613Z,12.10
2023-05-24T06:20:58.560Z,12.40
2023-05-24T06:23:26.440Z,12.00
2023-05-24T06:25:54.213Z,12.00
2023-05-24T06:28:22.709Z,12.00
2023-05-24T06:30:50.654Z,11.90
2023-05-24T06:33:19.078Z,11.90
2023-05-24T06:35:48.279Z,12.00
2023-05-24T06:38:16.088Z,12.20
2023-05-24T06:40:44.027Z,12.10
2023-05-24T06:43:11.945Z,12.00
2023-05-24T06:45:39.701Z,12.20
2023-05-24T06:48:08.003Z,12.30
2023-05-24T06:50:36.190Z,12.50
2023-05-24T06:53:05.337Z,12.30
2023-05-24T06:55:33.232Z,12.30
2023-05-24T06:58:00.993Z,12.30
2023-05-24T07:00:28.752Z,12.50
2023-05-24T07:02:57.441Z,12.70
2023-05-24T07:05:25.194Z,12.70
2023-05-24T07:07:53.144Z,12.80
2023-05-24T07:10:22.515Z,12.40
2023-05-24T07:12:50.326Z,12.10
2023-05-24T07:15:18.123Z,12.10
2023-05-24T07:17:46.211Z,12.50
2023-05-24T07:20:14.617Z,12.50
2023-05-24T07:22:43.994Z,12.50
2023-05-24T07:25:11.837Z,12.90
2023-05-24T07:27:41.092Z,13.20
2023-05-24T07:30:23.574Z,13.40
2023-05-24T07:32:57.637Z,13.50
2023-05-24T07:35:25.440Z,13.50
2023-05-24T07:37:53.236Z,13.60
2023-05-24T07:40:21.472Z,13.50
2023-05-24T07:42:50.678Z,13.40
2023-05-24T07:45:18.474Z,13.30
2023-05-24T07:47:46.558Z,13.20
2023-05-24T07:50:14.361Z,13.20
2023-05-24T07:52:42.157Z,13.10
2023-05-24T07:55:11.635Z,13.10
2023-05-24T07:57:39.444Z,13.30
2023-05-24T08:00:14.500Z,13.40
2023-05-24T08:02:43.173Z,13.70
2023-05-24T08:05:12.894Z,14.20
2023-05-24T08:07:41.701Z,14.20
2023-05-24T08:10:12.605Z,14.40
2023-05-24T08:12:40.562Z,14.50
2023-05-24T08:15:10.781Z,14.50
2023-05-24T08:17:39.637Z,14.50
2023-05-24T08:20:09.713Z,14.30
2023-05-24T08:22:38.095Z,14.40
2023-05-24T08:25:06.843Z,14.30
2023-05-24T08:27:34.825Z,14.10
2023-05-24T08:30:03.930Z,14.20
2023-05-24T08:32:33.329Z,14.20
2023-05-24T08:35:14.924Z,14.30
2023-05-24T08:37:47.979Z,14.50
2023-05-24T08:40:16.222Z,14.50
2023-05-24T08:42:44.315Z,14.80
2023-05-24T08:45:13.645Z,14.60
2023-05-24T08:47:43.388Z,14.40
2023-05-24T08:50:12.015Z,14.20
2023-05-24T08:52:41.372Z,14.20
2023-05-24T08:55:10.554Z,14.50
2023-05-24T08:57:41.235Z,14.30
2023-05-24T09:00:12.937Z,14.70
2023-05-24T09:02:43.667Z,15.20
2023-05-24T09:05:14.287Z,15.10
2023-05-24T09:07:44.454Z,15.20
2023-05-24T09:10:13.021Z,15.40
2023-05-24T09:12:45.212Z,15.50
2023-05-24T09:15:13.282Z,15.50
2023-05-24T09:17:42.440Z,15.50
2023-05-24T09:20:11.861Z,15.70
2023-05-24T09:22:43.040Z,15.50
2023-05-24T09:25:13.734Z,15.50
2023-05-24T09:27:41.810Z,15.60
2023-05-24T09:30:12.417Z,15.10
2023-05-24T09:32:42.611Z,15.10
2023-05-24T09:35:11.098Z,14.70
2023-05-24T09:37:40.276Z,14.50
2023-05-24T09:40:18.381Z,14.90
2023-05-24T09:42:46.536Z,15.40
2023-05-24T09:45:14.449Z,15.40
2023-05-24T09:47:45.427Z,15.60
2023-05-24T09:50:14.891Z,15.20
2023-05-24T09:52:43.666Z,15.20
2023-05-24T09:55:15.651Z,15.20
2023-05-24T09:57:45.469Z,15.40
2023-05-24T10:00:16.908Z,15.20
2023-05-24T10:02:53.321Z,15.40
2023-05-24T10:05:22.470Z,15.50
2023-05-24T10:07:50.509Z,15.90
2023-05-24T10:10:18.442Z,16.00
2023-05-24T10:12:47.583Z,15.90
2023-05-24T10:15:15.598Z,15.50
2023-05-24T10:17:43.476Z,15.70
2023-05-24T10:20:13.369Z,15.70
2023-05-24T10:22:45.082Z,15.50
2023-05-24T10:25:18.101Z,15.40
2023-05-24T10:27:47.128Z,15.40
2023-05-24T10:30:22.812Z,15.50
2023-05-24T10:32:51.753Z,15.50
2023-05-24T10:35:21.342Z,15.60
2023-05-24T10:37:49.302Z,15.80
2023-05-24T10:40:21.016Z,15.80
2023-05-24T10:42:49.572Z,15.90
2023-05-24T10:45:37.405Z,15.70
2023-05-24T10:48:39.446Z,15.70
2023-05-24T10:51:38.360Z,15.80
2023-05-24T10:54:17.592Z,15.60
2023-05-24T10:56:47.781Z,15.40
2023-05-24T10:59:29.704Z,15.20
2023-05-24T11:01:58.805Z,15.20
2023-05-24T11:04:27.451Z,15.10
2023-05-24T11:07:03.163Z,15.40
2023-05-24T11:09:31.931Z,15.70
2023-05-24T11:12:03.982Z,15.90
2023-05-24T11:14:33.125Z,16.00
2023-05-24T11:17:02.080Z,15.80
2023-05-24T11:19:35.368Z,16.00
2023-05-24T11:22:07.617Z,16.00
2023-05-24T11:24:36.387Z,15.80
2023-05-24T11:27:06.093Z,15.60
2023-05-24T11:29:35.358Z,15.60
2023-05-24T11:32:05.483Z,15.50
2023-05-24T11:34:33.799Z,15.50
2023-05-24T11:37:05.952Z,15.80
2023-05-24T11:39:35.368Z,16.10
2023-05-24T11:42:06.361Z,16.60
2023-05-24T11:44:35.259Z,16.90
2023-05-24T11:47:04.163Z,17.10
2023-05-24T11:49:31.967Z,17.30
2023-05-24T11:52:00.951Z,17.00
2023-05-24T11:54:32.543Z,16.30
2023-05-24T11:57:00.402Z,16.40
2023-05-24T11:59:29.411Z,16.50
2023-05-24T12:02:01.469Z,16.50
2023-05-24T12:04:30.442Z,16.70
2023-05-24T12:06:58.954Z,16.50
2023-05-24T12:09:27.658Z,16.30
2023-05-24T12:11:57.700Z,16.30
2023-05-24T12:14:27.429Z,16.20
2023-05-24T12:16:57.138Z,16.10
2023-05-24T12:21:58.582Z,16.00
2023-05-24T12:24:27.413Z,16.00
2023-05-24T12:27:02.567Z,16.20
2023-05-24T12:29:35.000Z,16.50
2023-05-24T12:32:03.311Z,16.60
2023-05-24T12:34:31.140Z,16.80
2023-05-24T12:36:58.939Z,16.80
2023-05-24T12:39:31.290Z,16.40
2023-05-24T12:42:01.654Z,16.40
2023-05-24T12:44:31.365Z,16.60
2023-05-24T12:46:59.934Z,16.70
2023-05-24T12:49:28.148Z,16.80
2023-05-24T12:51:56.794Z,16.70
2023-05-24T12:54:26.328Z,17.00
2023-05-24T12:56:56.565Z,16.90
2023-05-24T12:59:27.315Z,16.70
2023-05-24T13:01:55.248Z,16.60
2023-05-24T13:04:26.318Z,16.60
2023-05-24T13:06:54.413Z,16.50
2023-05-24T13:09:23.331Z,16.40
2023-05-24T13:11:52.132Z,16.40
2023-05-24T13:14:20.741Z,16.20
2023-05-24T13:16:50.144Z,16.20
2023-05-24T13:19:18.083Z,16.20
2023-05-24T13:21:46.375Z,15.90
2023-05-24T13:24:16.558Z,16.00
2023-05-24T13:26:44.653Z,16.20
2023-05-24T13:29:30.678Z,16.30
2023-05-24T13:32:02.179Z,16.20
2023-05-24T13:34:29.987Z,16.30
2023-05-24T13:36:59.928Z,16.50
2023-05-24T13:39:28.345Z,16.70
2023-05-24T13:41:56.806Z,16.70
2023-05-24T13:44:24.617Z,16.80
2023-05-24T13:46:52.424Z,16.90
2023-05-24T13:49:21.651Z,17.00
2023-05-24T13:51:49.680Z,16.90
2023-05-24T13:54:17.646Z,16.80
2023-05-24T13:56:45.572Z,16.90
2023-05-24T13:59:13.647Z,17.20
2023-05-24T14:01:41.487Z,17.30
2023-05-24T14:04:09.426Z,17.30
2023-05-24T14:06:38.747Z,17.50
2023-05-24T14:09:08.212Z,17.30
2023-05-24T14:11:36.197Z,17.30
2023-05-24T14:16:34.826Z,17.60
2023-05-24T14:19:02.802Z,17.50
2023-05-24T14:21:31.075Z,17.30
2023-05-24T14:24:00.176Z,17.40
2023-05-24T14:26:27.974Z,17.50
2023-05-24T14:28:56.862Z,17.60
2023-05-24T14:31:25.767Z,17.80
2023-05-24T14:33:53.578Z,17.60
2023-05-24T14:36:21.763Z,17.50
2023-05-24T14:38:49.550Z,17.80
2023-05-24T14:41:18.737Z,17.60
2023-05-24T14:43:46.489Z,17.30
2023-05-24T14:46:14.316Z,17.40
2023-05-24T14:48:42.391Z,17.50
2023-05-24T14:51:10.275Z,17.50
2023-05-24T14:53:38.110Z,17.70
2023-05-24T14:56:08.280Z,17.80
2023-05-24T14:58:37.480Z,17.40
2023-05-24T15:01:06.607Z,17.10
2023-05-24T15:03:34.600Z,16.90
2023-05-24T15:06:02.614Z,16.90
2023-05-24T15:08:30.737Z,17.00
2023-05-24T15:10:59.176Z,17.00
2023-05-24T15:13:27.202Z,16.40
2023-05-24T15:15:59.074Z,16.40
2023-05-24T15:18:27.976Z,16.50
2023-05-24T15:20:56.406Z,16.80
2023-05-24T15:23:26.129Z,16.90
2023-05-24T15:25:53.926Z,17.10
2023-05-24T15:28:26.218Z,17.10
2023-05-24T15:30:57.033Z,17.30
2023-05-24T15:33:26.443Z,17.30
2023-05-24T15:35:54.859Z,17.40
2023-05-24T15:38:22.703Z,17.50
2023-05-24T15:40:50.698Z,17.80
2023-05-24T15:43:19.510Z,17.90
2023-05-24T15:45:48.167Z,17.80
2023-05-24T15:48:17.322Z,17.40
2023-05-24T15:51:11.568Z,17.20
2023-05-24T15:53:33.458Z,17.20
2023-05-24T15:56:01.386Z,17.20
2023-05-24T15:58:29.152Z,16.80
2023-05-24T16:00:56.941Z,16.90
2023-05-24T16:03:26.123Z,16.80
2023-05-24T16:05:54.188Z,16.90
2023-05-24T16:08:27.358Z,17.30
2023-05-24T16:10:55.156Z,17.40
2023-05-24T16:13:23.080Z,17.50
2023-05-24T16:15:52.076Z,17.60
2023-05-24T16:18:21.460Z,17.40
2023-05-24T16:20:50.860Z,17.40
2023-05-24T16:23:22.753Z,17.60
2023-05-24T16:25:50.676Z,17.80
2023-05-24T16:28:22.925Z,17.70
2023-05-24T16:30:52.266Z,17.70
2023-05-24T16:33:20.108Z,17.50
2023-05-24T16:35:48.466Z,17.30
2023-05-24T16:38:18.501Z,17.30
2023-05-24T16:40:46.266Z,17.30
2023-05-24T16:43:14.059Z,17.40
2023-05-24T16:45:42.098Z,17.30
2023-05-24T16:48:09.964Z,17.30
2023-05-24T16:50:37.874Z,17.20
2023-05-24T16:53:06.798Z,17.20
2023-05-24T16:55:36.089Z,17.20
2023-05-24T16:58:06.619Z,17.10
2023-05-24T17:00:34.378Z,16.80
2023-05-24T17:03:02.182Z,16.80
2023-05-24T17:05:30.056Z,16.70
2023-05-24T17:07:57.857Z,17.00
2023-05-24T17:10:25.629Z,16.90
2023-05-24T17:12:54.707Z,17.20
2023-05-24T17:15:22.497Z,17.20
2023-05-24T17:17:50.390Z,17.00
2023-05-24T17:20:18.301Z,16.60
2023-05-24T17:22:46.151Z,16.60
2023-05-24T17:25:13.918Z,16.40
2023-05-24T17:27:41.703Z,16.40
2023-05-24T17:30:11.590Z,16.50
2023-05-24T17:32:39.386Z,16.30
2023-05-24T17:35:07.445Z,16.60
2023-05-24T17:37:35.214Z,17.00
2023-05-24T17:40:03.146Z,17.20
2023-05-24T17:42:30.923Z,17.10
2023-05-24T17:44:58.712Z,17.00
2023-05-24T17:47:27.947Z,16.80
2023-05-24T17:49:55.770Z,16.60
2023-05-24T17:52:23.563Z,16.70
2023-05-24T17:54:51.320Z,16.60
2023-05-24T17:57:19.142Z,16.70
2023-05-24T17:59:46.899Z,16.80
2023-05-24T18:02:14.826Z,16.90
2023-05-24T18:04:44.005Z,16.90
2023-05-24T18:07:11.950Z,16.80
2023-05-24T18:09:39.706Z,16.80
2023-05-24T18:12:07.635Z,16.80
2023-05-24T18:14:35.487Z,16.80
2023-05-24T18:17:03.420Z,16.60
2023-05-24T18:19:31.260Z,16.60
2023-05-24T18:22:00.351Z,16.60
2023-05-24T18:24:28.113Z,16.70
2023-05-24T18:26:55.842Z,16.80
2023-05-24T18:29:23.760Z,16.80
2023-05-24T18:31:52.090Z,16.70
2023-05-24T18:34:19.943Z,16.80
2023-05-24T18:36:47.787Z,16.60
2023-05-24T18:39:17.168Z,16.70
2023-05-24T18:41:45.244Z,16.80
2023-05-24T18:44:12.986Z,16.80
2023-05-24T18:46:40.768Z,16.80
2023-05-24T18:49:10.934Z,16.90
2023-05-24T18:51:39.041Z,16.80
2023-05-24T18:54:06.905Z,16.90
2023-05-24T18:56:36.064Z,16.60
2023-05-24T18:59:03.800Z,16.50
2023-05-24T19:01:31.574Z,16.60
2023-05-24T19:03:59.348Z,16.50
2023-05-24T19:06:27.122Z,16.30
2023-05-24T19:08:54.872Z,16.50
2023-05-24T19:11:23.013Z,16.60
2023-05-24T19:13:52.157Z,16.60
2023-05-24T19:16:19.946Z,16.70
2023-05-24T19:18:47.936Z,16.70
2023-05-24T19:21:15.930Z,16.70
2023-05-24T19:23:43.785Z,16.60
2023-05-24T19:26:11.766Z,16.60
2023-05-24T19:28:41.638Z,16.50
2023-05-24T19:31:10.756Z,16.40
2023-05-24T19:33:48.482Z,16.40
2023-05-24T19:36:26.224Z,16.40
2023-05-24T19:38:54.682Z,16.40
2023-05-24T19:41:22.481Z,16.30
2023-05-24T19:43:50.297Z,16.40
2023-05-24T19:46:19.449Z,16.30
2023-05-24T19:48:47.313Z,16.20
2023-05-24T19:51:15.731Z,16.30
2023-05-24T19:53:43.661Z,16.30
2023-05-24T19:56:11.580Z,16.30
2023-05-24T19:58:39.584Z,16.20
2023-05-24T20:01:07.548Z,16.30
2023-05-24T20:03:36.685Z,16.40
2023-05-24T20:06:04.649Z,16.30
2023-05-24T20:08:32.434Z,16.20
2023-05-24T20:11:00.181Z,16.20
2023-05-24T20:13:27.938Z,16.00
2023-05-24T20:15:56.273Z,15.80
2023-05-24T20:18:24.178Z,15.80
2023-05-24T20:20:55.036Z,15.70
2023-05-24T20:23:27.203Z,15.70
2023-05-24T20:25:55.911Z,15.60
2023-05-24T20:28:30.734Z,15.50
2023-05-24T20:30:59.536Z,15.40
2023-05-24T20:33:27.306Z,15.30
2023-05-24T20:35:56.406Z,15.20
2023-05-24T20:38:24.345Z,15.10
2023-05-24T20:40:52.069Z,15.20
2023-05-24T20:43:19.814Z,15.20
2023-05-24T20:45:47.704Z,15.30
2023-05-24T20:48:15.695Z,15.40
2023-05-24T20:50:43.490Z,15.40
2023-05-24T20:53:12.626Z,15.40
2023-05-24T20:55:40.364Z,15.30
2023-05-24T20:58:08.186Z,15.40
2023-05-24T21:00:37.585Z,15.30
2023-05-24T21:03:06.828Z,15.20
2023-05-24T21:05:36.291Z,15.30
2023-05-24T21:08:04.127Z,15.30
2023-05-24T21:10:33.721Z,15.30
2023-05-24T21:13:01.467Z,15.30
2023-05-24T21:15:29.243Z,15.40
2023-05-24T21:17:57.031Z,15.40
2023-05-24T21:20:24.975Z,15.50
2023-05-24T21:22:53.032Z,15.40
2023-05-24T21:25:21.030Z,15.70
2023-05-24T21:27:50.152Z,15.70
2023-05-24T21:30:17.900Z,15.60
2023-05-24T21:32:45.796Z,15.70
2023-05-24T21:35:13.592Z,15.60
2023-05-24T21:37:41.367Z,15.50
2023-05-24T21:40:09.762Z,15.60
2023-05-24T21:42:37.727Z,15.60
2023-05-24T21:45:08.251Z,15.60
2023-05-24T21:47:36.496Z,15.50
2023-05-24T21:50:05.283Z,15.50
2023-05-24T21:52:33.107Z,15.40
2023-05-24T21:55:01.025Z,15.30
2023-05-24T21:57:28.813Z,15.40
2023-05-24T21:59:57.305Z,15.40
2023-05-24T22:02:26.481Z,15.00
2023-05-24T22:04:54.345Z,14.90
2023-05-24T22:07:22.115Z,14.90
2023-05-24T22:09:49.884Z,15.10
2023-05-24T22:12:17.752Z,15.20
2023-05-24T22:14:45.750Z,15.30
2023-05-24T22:17:14.145Z,15.30
2023-05-24T22:19:43.952Z,15.30
2023-05-24T22:22:12.368Z,15.30
2023-05-24T22:24:40.560Z,15.30
2023-05-24T22:27:09.646Z,15.40
2023-05-24T22:29:37.524Z,15.40
2023-05-24T22:32:05.808Z,15.40
2023-05-24T22:34:33.648Z,15.40
2023-05-24T22:37:02.779Z,15.50
2023-05-24T22:39:30.567Z,15.40
2023-05-24T22:41:58.334Z,15.40
2023-05-24T22:44:26.379Z,15.50
2023-05-24T22:46:54.303Z,15.50
2023-05-24T22:49:22.140Z,15.50
2023-05-24T22:51:50.913Z,15.60
2023-05-24T22:54:20.364Z,15.50
2023-05-24T22:56:48.210Z,15.50
2023-05-24T22:59:16.040Z,15.50
2023-05-24T23:01:44.572Z,15.40
2023-05-24T23:04:21.294Z,15.40
2023-05-24T23:06:52.664Z,15.40
2023-05-24T23:09:29.017Z,15.20
2023-05-24T23:11:58.153Z,15.20
2023-05-24T23:14:26.094Z,15.30
2023-05-24T23:16:54.246Z,15.30
2023-05-24T23:19:22.230Z,15.20
2023-05-24T23:21:52.377Z,15.20
2023-05-24T23:24:20.152Z,15.20
2023-05-24T23:26:49.261Z,15.20
2023-05-24T23:29:17.073Z,15.10
2023-05-24T23:31:44.891Z,15.20
2023-05-24T23:34:12.653Z,15.30
2023-05-24T23:36:40.408Z,15.40
2023-05-24T23:39:10.813Z,15.30
2023-05-24T23:41:38.692Z,15.30
2023-05-24T23:44:07.868Z,15.30
2023-05-24T23:46:36.365Z,15.30
2023-05-24T23:49:04.160Z,15.30
2023-05-24T23:51:34.204Z,15.30
2023-05-24T23:54:02.396Z,15.00
2023-05-24T23:56:30.152Z,15.00
2023-05-24T23:58:58.044Z,14.90
